createdAt,value
2023-02-18T00:00:02.486Z,0
2023-02-18T00:05:03.284Z,0
2023-02-18T00:10:02.814Z,0
2023-02-18T00:15:02.524Z,0
2023-02-18T00:20:03.242Z,0
2023-02-18T00:25:02.860Z,0
2023-02-18T00:30:02.721Z,0
2023-02-18T00:35:02.499Z,0
2023-02-18T00:40:03.328Z,0
2023-02-18T00:45:02.990Z,0
2023-02-18T00:50:02.872Z,0
2023-02-18T00:55:03.148Z,0
2023-02-18T01:00:03.384Z,0
2023-02-18T01:05:03.312Z,0
2023-02-18T01:10:02.934Z,0
2023-02-18T01:15:02.950Z,0
2023-02-18T01:20:02.671Z,0
2023-02-18T01:25:02.585Z,0
2023-02-18T01:30:03.446Z,0
2023-02-18T01:35:03.229Z,0
2023-02-18T01:40:02.942Z,0
2023-02-18T01:45:02.688Z,0
2023-02-18T01:50:02.394Z,0
2023-02-18T01:55:03.942Z,0
2023-02-18T02:00:02.817Z,0
2023-02-18T02:05:02.606Z,0
2023-02-18T02:10:02.436Z,0
2023-02-18T02:15:02.732Z,0
2023-02-18T02:20:03.323Z,0
2023-02-18T02:25:03.251Z,0
2023-02-18T02:30:02.982Z,0
2023-02-18T02:35:02.762Z,0
2023-02-18T02:40:02.797Z,0
2023-02-18T02:45:02.520Z,0
2023-02-18T02:50:02.377Z,0
2023-02-18T02:55:03.740Z,0
2023-02-18T03:00:02.985Z,0
2023-02-18T03:05:02.630Z,0
2023-02-18T03:10:02.322Z,0
2023-02-18T03:15:03.069Z,0
2023-02-18T03:20:02.874Z,0
2023-02-18T03:25:02.779Z,0
2023-02-18T03:30:02.663Z,0
2023-02-18T03:35:03.306Z,0
2023-02-18T03:40:03.300Z,0
2023-02-18T03:45:03.172Z,0
2023-02-18T03:50:02.826Z,0
2023-02-18T03:55:02.783Z,0
2023-02-18T04:00:03.447Z,0
2023-02-18T04:05:03.361Z,0
2023-02-18T04:10:03.386Z,0
2023-02-18T04:15:03.004Z,0
2023-02-18T04:20:02.678Z,0
2023-02-18T04:25:02.400Z,0
2023-02-18T04:30:03.296Z,0
2023-02-18T04:35:03.364Z,0
2023-02-18T04:40:03.175Z,0
2023-02-18T04:45:02.904Z,0
2023-02-18T04:50:02.485Z,0
2023-02-18T04:55:03.555Z,0
2023-02-18T05:00:02.971Z,0
2023-02-18T05:05:02.886Z,0
2023-02-18T05:10:02.693Z,0
2023-02-18T05:15:02.433Z,0
2023-02-18T05:20:03.133Z,0
2023-02-18T05:25:02.938Z,0
2023-02-18T05:30:02.943Z,0
2023-02-18T05:35:02.489Z,0
2023-02-18T05:40:03.170Z,0
2023-02-18T05:45:02.917Z,0.23
2023-02-18T05:50:02.720Z,0.68
2023-02-18T05:55:03.044Z,1.58
2023-02-18T06:00:03.216Z,3.74
2023-02-18T06:05:02.902Z,8.72
2023-02-18T06:10:02.554Z,6.67
2023-02-18T06:15:02.439Z,13.33
2023-02-18T06:20:03.232Z,21.67
2023-02-18T06:25:02.917Z,50
2023-02-18T06:30:02.820Z,80
2023-02-18T06:35:02.397Z,143.33
2023-02-18T06:40:03.152Z,201.67
2023-02-18T06:45:02.518Z,190
2023-02-18T06:50:03.138Z,216.67
2023-02-18T06:55:03.192Z,230
2023-02-18T07:00:02.764Z,350
2023-02-18T07:05:02.489Z,320
2023-02-18T07:10:03.234Z,631.67
2023-02-18T07:15:03.011Z,873.33
2023-02-18T07:20:03.007Z,761.67
2023-02-18T07:30:02.630Z,793.33
2023-02-18T07:35:03.211Z,963.33
2023-02-18T07:40:02.967Z,975
2023-02-18T07:45:02.785Z,1003.33
2023-02-18T07:50:02.523Z,1126.67
2023-02-18T07:55:04.409Z,1136.67
2023-02-18T08:00:03.538Z,758.33
2023-02-18T08:05:03.169Z,853.33
2023-02-18T08:10:03.182Z,788.33
2023-02-18T08:15:03.172Z,1031.67
2023-02-18T08:20:02.756Z,1025
2023-02-18T08:25:02.468Z,1190
2023-02-18T08:30:03.236Z,1356.67
2023-02-18T08:35:02.801Z,1506.67
2023-02-18T08:40:02.512Z,1345
2023-02-18T08:45:02.423Z,978.33
2023-02-18T08:50:03.153Z,1471.67
2023-02-18T08:55:03.789Z,1763.33
2023-02-18T09:00:03.099Z,2088.33
2023-02-18T09:05:02.715Z,1395
2023-02-18T09:10:02.493Z,1801.67
2023-02-18T09:15:03.287Z,1615
2023-02-18T09:20:02.942Z,1313.33
2023-02-18T09:25:02.703Z,1371.67
2023-02-18T09:30:02.632Z,1253.33
2023-02-18T09:35:03.214Z,1475
2023-02-18T09:40:02.328Z,2026.67
2023-02-18T09:45:03.039Z,2021.67
2023-02-18T09:50:02.869Z,2660
2023-02-18T09:55:02.953Z,2340
2023-02-18T10:00:03.319Z,2423.33
2023-02-18T10:05:03.154Z,3701.67
2023-02-18T10:10:02.983Z,3150
2023-02-18T10:15:02.675Z,3471.67
2023-02-18T10:20:08.256Z,2548.33
2023-02-18T10:25:03.293Z,1991.67
2023-02-18T10:30:02.965Z,2961.67
2023-02-18T10:35:02.825Z,3028.33
2023-02-18T10:40:02.655Z,3390
2023-02-18T10:45:02.429Z,3161.67
2023-02-18T10:50:03.093Z,3180
2023-02-18T10:55:03.770Z,2650
2023-02-18T11:00:02.909Z,2520
2023-02-18T11:05:02.763Z,2678.33
2023-02-18T11:10:02.416Z,4006.67
2023-02-18T11:15:03.672Z,4270
2023-02-18T11:20:03.069Z,4825
2023-02-18T11:25:02.716Z,5706.67
2023-02-18T11:30:02.838Z,4983.33
2023-02-18T11:35:03.033Z,3488.33
2023-02-18T11:40:03.932Z,6990
2023-02-18T11:45:05.866Z,6856.67
2023-02-18T11:50:02.856Z,6060
2023-02-18T11:55:03.046Z,4485
2023-02-18T12:00:02.683Z,4266.67
2023-02-18T12:05:03.380Z,3346.67
2023-02-18T12:10:03.436Z,3916.67
2023-02-18T12:15:03.091Z,3393.33
2023-02-18T12:20:02.765Z,2563.33
2023-02-18T12:25:02.690Z,2858.33
2023-02-18T12:30:03.397Z,1880
2023-02-18T12:40:02.709Z,3068.33
2023-02-18T12:45:02.892Z,5271.67
2023-02-18T12:50:02.495Z,3666.67
2023-02-18T13:00:03.508Z,1131.67
2023-02-18T13:05:03.138Z,1130
2023-02-18T13:10:02.873Z,1395
2023-02-18T13:15:02.693Z,2001.67
2023-02-18T13:20:02.476Z,1353.33
2023-02-18T13:25:02.391Z,1970
2023-02-18T13:30:02.623Z,1133.33
2023-02-18T13:35:03.214Z,1196.67
2023-02-18T13:40:02.911Z,1516.67
2023-02-18T13:45:02.735Z,1298.33
2023-02-18T13:50:02.724Z,948.33
2023-02-18T13:55:04.090Z,1213.33
2023-02-18T14:00:02.986Z,948.33
2023-02-18T14:05:02.743Z,890
2023-02-18T14:10:02.638Z,1143.33
2023-02-18T14:15:03.323Z,766.67
2023-02-18T14:20:03.042Z,1008.33
2023-02-18T14:25:02.748Z,1016.67
2023-02-18T14:30:02.646Z,1046.67
2023-02-18T14:35:03.256Z,1118.33
2023-02-18T14:40:02.948Z,1885
2023-02-18T14:45:02.682Z,1313.33
2023-02-18T14:50:03.321Z,831.67
2023-02-18T14:55:04.046Z,1048.33
2023-02-18T15:00:03.148Z,783.33
2023-02-18T15:05:02.900Z,890
2023-02-18T15:10:03.021Z,938.33
2023-02-18T15:15:02.658Z,945
2023-02-18T15:20:02.518Z,1710
2023-02-18T15:25:03.279Z,835
2023-02-18T15:30:03.168Z,966.67
2023-02-18T15:35:02.726Z,486.67
2023-02-18T15:40:02.454Z,333.33
2023-02-18T15:45:02.530Z,353.33
2023-02-18T15:50:03.248Z,340
2023-02-18T15:55:03.930Z,425
2023-02-18T16:00:02.984Z,371.67
2023-02-18T16:05:05.058Z,260
2023-02-18T16:10:02.448Z,213.33
2023-02-18T16:15:03.440Z,198.33
2023-02-18T16:20:06.163Z,170
2023-02-18T16:25:03.009Z,130
2023-02-18T16:30:02.868Z,81.67
2023-02-18T16:35:02.698Z,35
2023-02-18T16:40:05.874Z,21.67
2023-02-18T16:45:03.233Z,11.09
2023-02-18T16:50:02.982Z,6.11
2023-02-18T16:55:03.270Z,2.04
2023-02-18T17:00:02.576Z,0.91
2023-02-18T17:05:03.298Z,0.57
2023-02-18T17:10:02.842Z,0
2023-02-18T17:15:02.642Z,0
2023-02-18T17:20:02.369Z,0
2023-02-18T17:25:03.257Z,0
2023-02-18T17:30:03.215Z,0
2023-02-18T17:35:02.922Z,0
2023-02-18T17:40:02.993Z,0
2023-02-18T17:45:02.627Z,0
2023-02-18T17:50:03.232Z,0
2023-02-18T17:55:04.010Z,0
2023-02-18T18:00:03.020Z,0
2023-02-18T18:05:02.661Z,0
2023-02-18T18:10:02.461Z,0
2023-02-18T18:15:03.271Z,0
2023-02-18T18:20:03.095Z,0
2023-02-18T18:25:02.975Z,0
2023-02-18T18:30:02.723Z,0
2023-02-18T18:35:02.485Z,0
2023-02-18T18:40:03.335Z,0
2023-02-18T18:45:03.107Z,0
2023-02-18T18:50:03.055Z,0
2023-02-18T18:55:03.342Z,0
2023-02-18T19:00:02.442Z,0
2023-02-18T19:05:03.207Z,0
2023-02-18T19:10:03.004Z,0
2023-02-18T19:15:03.014Z,0
2023-02-18T19:20:02.857Z,0
2023-02-18T19:25:03.136Z,0
2023-02-18T19:30:03.143Z,0
2023-02-18T19:35:02.828Z,0
2023-02-18T19:40:02.596Z,0
2023-02-18T19:45:02.432Z,0
2023-02-18T19:50:03.186Z,0
2023-02-18T19:55:03.793Z,0
2023-02-18T20:00:03.213Z,0
2023-02-18T20:05:02.538Z,0
2023-02-18T20:10:02.361Z,0
2023-02-18T20:15:03.172Z,0
2023-02-18T20:20:02.867Z,0
2023-02-18T20:25:02.880Z,0
2023-02-18T20:30:02.866Z,0
2023-02-18T20:35:03.376Z,0
2023-02-18T20:40:03.077Z,0
2023-02-18T20:45:02.858Z,0
2023-02-18T20:50:02.546Z,0
2023-02-18T20:55:03.640Z,0
2023-02-18T21:00:03.498Z,0
2023-02-18T21:05:03.047Z,0
2023-02-18T21:10:02.795Z,0
2023-02-18T21:15:02.856Z,0
2023-02-18T21:20:02.673Z,0
2023-02-18T21:25:02.488Z,0
2023-02-18T21:35:03.290Z,0
2023-02-18T21:40:02.901Z,0
2023-02-18T21:45:02.734Z,0
2023-02-18T21:50:02.486Z,0
2023-02-18T21:55:03.585Z,0
2023-02-18T22:00:20.384Z,0
2023-02-18T22:05:03.018Z,0
2023-02-18T22:10:03.027Z,0
2023-02-18T22:15:02.682Z,0
2023-02-18T22:20:02.443Z,0
2023-02-18T22:25:02.661Z,0
2023-02-18T22:30:02.766Z,0
2023-02-18T22:40:04.375Z,0
2023-02-18T22:45:03.266Z,0
2023-02-18T22:50:03.087Z,0
2023-02-18T22:55:03.283Z,0
2023-02-18T23:05:03.277Z,0
2023-02-18T23:10:03.009Z,0
2023-02-18T23:15:02.957Z,0
2023-02-18T23:20:02.501Z,0
2023-02-18T23:25:03.259Z,0
2023-02-18T23:30:02.530Z,0
2023-02-18T23:40:03.235Z,0
2023-02-18T23:45:03.008Z,0
2023-02-18T23:50:02.645Z,0
2023-02-18T23:55:03.107Z,0
